createdAt,value
2023-03-06T00:00:34.659Z,8.25
2023-03-06T00:03:01.233Z,8.29
2023-03-06T00:05:27.916Z,8.30
2023-03-06T00:07:54.512Z,8.23
2023-03-06T00:10:24.988Z,8.22
2023-03-06T00:12:52.932Z,8.08
2023-03-06T00:15:20.213Z,8.06
2023-03-06T00:17:46.927Z,8.22
2023-03-06T00:20:14.530Z,8.25
2023-03-06T00:22:41.293Z,8.26
2023-03-06T00:25:12.364Z,8.17
2023-03-06T00:27:38.886Z,8.15
2023-03-06T00:30:05.923Z,8.04
2023-03-06T00:32:32.320Z,8.08
2023-03-06T00:34:58.798Z,8.06
2023-03-06T00:37:26.007Z,8.16
2023-03-06T00:39:52.480Z,8.25
2023-03-06T00:42:19.798Z,8.23
2023-03-06T00:44:46.330Z,8.27
2023-03-06T00:47:13.540Z,8.29
2023-03-06T00:49:39.929Z,8.16
2023-03-06T00:52:06.401Z,8.15
2023-03-06T00:54:32.792Z,8.14
2023-03-06T00:56:59.165Z,8.12
2023-03-06T00:59:25.617Z,7.99
2023-03-06T01:01:52.070Z,7.96
2023-03-06T01:04:18.630Z,7.99
2023-03-06T01:06:45.058Z,8.09
2023-03-06T01:09:11.673Z,8.08
2023-03-06T01:11:38.066Z,8.15
2023-03-06T01:14:05.199Z,8.22
2023-03-06T01:16:31.728Z,8.10
2023-03-06T01:18:58.447Z,8.10
2023-03-06T01:21:25.561Z,8.15
2023-03-06T01:23:51.992Z,8.10
2023-03-06T01:26:18.503Z,8.10
2023-03-06T01:28:44.940Z,8.21
2023-03-06T01:31:11.536Z,8.18
2023-03-06T01:33:38.062Z,8.19
2023-03-06T01:36:07.333Z,8.13
2023-03-06T01:38:35.425Z,8.20
2023-03-06T01:41:03.484Z,8.13
2023-03-06T01:43:35.177Z,8.22
2023-03-06T01:46:16.672Z,8.04
2023-03-06T01:48:44.607Z,8.03
2023-03-06T01:51:11.713Z,8.00
2023-03-06T01:53:39.778Z,8.06
2023-03-06T01:56:06.998Z,7.98
2023-03-06T01:58:33.788Z,7.95
2023-03-06T02:01:00.219Z,7.92
2023-03-06T02:03:28.354Z,8.05
2023-03-06T02:05:55.898Z,7.96
2023-03-06T02:08:23.777Z,7.97
2023-03-06T02:10:58.676Z,7.99
2023-03-06T02:13:25.190Z,8.03
2023-03-06T02:15:51.684Z,7.89
2023-03-06T02:18:18.134Z,7.82
2023-03-06T02:20:51.680Z,7.78
2023-03-06T02:23:33.306Z,7.87
2023-03-06T02:26:01.631Z,7.91
2023-03-06T02:28:28.102Z,7.91
2023-03-06T02:30:55.818Z,7.90
2023-03-06T02:33:25.586Z,7.99
2023-03-06T02:35:58.381Z,7.97
2023-03-06T02:38:32.934Z,7.90
2023-03-06T02:41:01.457Z,7.80
2023-03-06T02:43:34.857Z,7.80
2023-03-06T02:46:01.298Z,7.84
2023-03-06T02:48:27.774Z,7.77
2023-03-06T02:50:54.165Z,7.78
2023-03-06T02:53:21.170Z,7.84
2023-03-06T02:55:49.131Z,7.86
2023-03-06T02:58:15.571Z,7.85
2023-03-06T03:00:42.097Z,7.85
2023-03-06T03:03:08.509Z,7.90
2023-03-06T03:05:34.889Z,7.88
2023-03-06T03:08:01.323Z,7.87
2023-03-06T03:10:27.738Z,7.77
2023-03-06T03:12:54.454Z,7.61
2023-03-06T03:15:20.898Z,7.63
2023-03-06T03:17:47.442Z,7.67
2023-03-06T03:20:17.290Z,7.65
2023-03-06T03:22:48.166Z,7.76
2023-03-06T03:25:14.540Z,7.74
2023-03-06T03:27:40.908Z,7.73
2023-03-06T03:30:08.424Z,7.77
2023-03-06T03:32:34.891Z,7.69
2023-03-06T03:35:01.467Z,7.59
2023-03-06T03:37:27.946Z,7.55
2023-03-06T03:39:54.328Z,7.50
2023-03-06T03:42:20.815Z,7.48
2023-03-06T03:44:47.293Z,7.44
2023-03-06T03:47:13.675Z,7.37
2023-03-06T03:49:40.041Z,7.39
2023-03-06T03:52:06.548Z,7.44
2023-03-06T03:54:32.903Z,7.53
2023-03-06T03:56:59.405Z,7.42
2023-03-06T03:59:25.833Z,7.41
2023-03-06T04:01:52.456Z,7.37
2023-03-06T04:04:18.922Z,7.30
2023-03-06T04:06:45.359Z,7.38
2023-03-06T04:09:11.707Z,7.34
2023-03-06T04:11:38.590Z,7.30
2023-03-06T04:14:05.006Z,7.41
2023-03-06T04:16:31.432Z,7.45
2023-03-06T04:18:57.806Z,7.40
2023-03-06T04:21:24.230Z,7.37
2023-03-06T04:23:50.603Z,7.37
2023-03-06T04:26:17.065Z,7.48
2023-03-06T04:28:43.430Z,7.45
2023-03-06T04:31:12.201Z,7.51
2023-03-06T04:33:38.808Z,7.44
2023-03-06T04:36:05.568Z,7.42
2023-03-06T04:38:32.030Z,7.33
2023-03-06T04:40:58.539Z,7.25
2023-03-06T04:43:25.107Z,7.22
2023-03-06T04:45:51.671Z,7.30
2023-03-06T04:48:18.964Z,7.32
2023-03-06T04:50:45.938Z,7.27
2023-03-06T04:53:14.497Z,7.27
2023-03-06T04:55:40.888Z,7.26
2023-03-06T04:58:07.338Z,7.27
2023-03-06T05:00:33.797Z,7.28
2023-03-06T05:03:01.041Z,7.32
2023-03-06T05:05:28.133Z,7.35
2023-03-06T05:07:54.730Z,7.35
2023-03-06T05:10:21.795Z,7.24
2023-03-06T05:12:48.593Z,7.19
2023-03-06T05:15:15.110Z,7.19
2023-03-06T05:17:41.653Z,7.15
2023-03-06T05:20:10.062Z,7.11
2023-03-06T05:22:36.733Z,7.12
2023-03-06T05:25:04.807Z,7.09
2023-03-06T05:27:31.200Z,7.03
2023-03-06T05:29:57.849Z,7.11
2023-03-06T05:32:24.343Z,7.06
2023-03-06T05:34:51.066Z,7.09
2023-03-06T05:37:17.499Z,7.06
2023-03-06T05:39:44.226Z,7.14
2023-03-06T05:42:10.614Z,7.30
2023-03-06T05:44:37.980Z,7.26
2023-03-06T05:47:04.750Z,7.28
2023-03-06T05:49:33.558Z,7.18
2023-03-06T05:52:00.937Z,7.18
2023-03-06T05:54:27.383Z,7.29
2023-03-06T05:56:53.907Z,7.22
2023-03-06T05:59:20.368Z,7.19
2023-03-06T06:01:46.720Z,7.22
2023-03-06T06:04:13.167Z,7.14
2023-03-06T06:06:39.584Z,7.21
2023-03-06T06:09:06.038Z,7.19
2023-03-06T06:11:32.439Z,7.12
2023-03-06T06:13:58.885Z,7.18
2023-03-06T06:16:25.279Z,7.19
2023-03-06T06:18:51.670Z,7.19
2023-03-06T06:21:18.119Z,7.15
2023-03-06T06:23:44.572Z,7.13
2023-03-06T06:26:11.073Z,7.22
2023-03-06T06:28:37.675Z,7.15
2023-03-06T06:31:13.566Z,7.22
2023-03-06T06:33:41.079Z,7.30
2023-03-06T06:36:16.222Z,7.20
2023-03-06T06:38:42.871Z,7.12
2023-03-06T06:41:36.061Z,7.11
2023-03-06T06:43:57.592Z,7.12
2023-03-06T06:47:10.794Z,7.24
2023-03-06T06:49:13.103Z,7.26
2023-03-06T06:51:40.558Z,7.30
2023-03-06T06:54:07.589Z,7.28
2023-03-06T06:56:34.511Z,7.27
2023-03-06T06:59:15.561Z,7.21
2023-03-06T07:01:42.843Z,7.29
2023-03-06T07:04:12.294Z,7.30
2023-03-06T07:06:38.761Z,7.37
2023-03-06T07:09:05.608Z,7.24
2023-03-06T07:11:32.060Z,7.41
2023-03-06T07:13:58.503Z,7.34
2023-03-06T07:16:24.969Z,7.29
2023-03-06T07:18:51.387Z,7.28
2023-03-06T07:21:17.766Z,7.28
2023-03-06T07:23:44.586Z,7.40
2023-03-06T07:26:11.045Z,7.43
2023-03-06T07:28:51.265Z,7.41
2023-03-06T07:31:22.819Z,7.47
2023-03-06T07:33:50.619Z,7.44
2023-03-06T07:36:17.778Z,7.47
2023-03-06T07:38:44.283Z,7.58
2023-03-06T07:41:13.570Z,7.53
2023-03-06T07:43:41.151Z,7.54
2023-03-06T07:46:08.051Z,7.58
2023-03-06T07:48:35.742Z,7.62
2023-03-06T07:51:05.230Z,7.70
2023-03-06T07:53:32.386Z,7.62
2023-03-06T07:55:58.865Z,7.66
2023-03-06T07:58:25.715Z,7.65
2023-03-06T08:00:52.676Z,7.64
2023-03-06T08:03:19.123Z,7.72
2023-03-06T08:05:45.556Z,7.74
2023-03-06T08:08:12.651Z,7.77
2023-03-06T08:10:39.241Z,7.86
2023-03-06T08:13:05.681Z,7.81
2023-03-06T08:15:32.120Z,7.92
2023-03-06T08:17:58.519Z,7.96
2023-03-06T08:20:25.001Z,8.03
2023-03-06T08:22:51.401Z,8.03
2023-03-06T08:25:17.862Z,8.05
2023-03-06T08:27:44.270Z,8.04
2023-03-06T08:30:12.168Z,7.98
2023-03-06T08:32:38.647Z,8.05
2023-03-06T08:35:05.505Z,8.10
2023-03-06T08:37:32.019Z,8.13
2023-03-06T08:39:58.657Z,8.16
2023-03-06T08:42:25.088Z,8.16
2023-03-06T08:44:51.526Z,8.21
2023-03-06T08:47:18.005Z,8.24
2023-03-06T08:49:44.442Z,8.22
2023-03-06T08:52:11.133Z,8.23
2023-03-06T08:54:39.070Z,8.24
2023-03-06T08:57:06.541Z,8.34
2023-03-06T08:59:32.947Z,8.40
2023-03-06T09:01:59.742Z,8.38
2023-03-06T09:04:26.193Z,8.41
2023-03-06T09:06:54.511Z,8.37
2023-03-06T09:09:21.842Z,8.47
2023-03-06T09:11:48.460Z,8.53
2023-03-06T09:14:14.885Z,8.68
2023-03-06T09:16:41.365Z,8.72
2023-03-06T09:19:07.921Z,8.80
2023-03-06T09:21:34.399Z,8.61
2023-03-06T09:24:00.809Z,8.57
2023-03-06T09:26:39.517Z,8.68
2023-03-06T09:29:10.222Z,8.68
2023-03-06T09:31:36.622Z,8.75
2023-03-06T09:34:03.168Z,8.94
2023-03-06T09:36:30.784Z,9.08
2023-03-06T09:38:57.412Z,9.14
2023-03-06T09:41:35.348Z,9.24
2023-03-06T09:44:15.090Z,9.36
2023-03-06T09:47:18.994Z,9.31
2023-03-06T09:50:00.714Z,9.27
2023-03-06T09:52:32.627Z,9.34
2023-03-06T09:55:17.208Z,9.40
2023-03-06T09:58:02.418Z,9.49
2023-03-06T10:00:51.900Z,9.49
2023-03-06T10:03:25.667Z,9.58
2023-03-06T10:06:02.797Z,9.53
2023-03-06T10:08:49.095Z,9.55
2023-03-06T10:11:22.361Z,9.66
2023-03-06T10:13:51.530Z,9.72
2023-03-06T10:16:30.825Z,9.68
2023-03-06T10:19:02.460Z,9.77
2023-03-06T10:21:40.960Z,9.85
2023-03-06T10:24:25.015Z,9.82
2023-03-06T10:27:33.158Z,9.80
2023-03-06T10:30:32.561Z,9.81
2023-03-06T10:33:29.098Z,9.82
2023-03-06T10:35:56.368Z,9.90
2023-03-06T10:38:30.239Z,9.93
2023-03-06T10:41:11.961Z,9.94
2023-03-06T10:44:06.562Z,9.80
2023-03-06T10:46:42.292Z,9.80
2023-03-06T10:49:14.815Z,9.81
2023-03-06T10:51:56.012Z,9.71
2023-03-06T10:54:22.468Z,9.58
2023-03-06T10:56:48.871Z,9.45
2023-03-06T10:59:17.299Z,9.44
2023-03-06T11:01:49.677Z,9.38
2023-03-06T11:04:23.404Z,9.53
2023-03-06T11:07:15.765Z,9.66
2023-03-06T11:09:47.602Z,9.58
2023-03-06T11:12:29.210Z,9.67
2023-03-06T11:15:18.780Z,9.67
2023-03-06T11:17:49.834Z,9.69
2023-03-06T11:20:20.867Z,9.73
2023-03-06T11:22:51.884Z,9.58
2023-03-06T11:25:20.802Z,9.69
2023-03-06T11:27:56.173Z,9.74
2023-03-06T11:30:30.946Z,9.70
2023-03-06T11:33:05.881Z,9.72
2023-03-06T11:35:43.420Z,9.75
2023-03-06T11:38:25.956Z,9.84
2023-03-06T11:41:03.200Z,9.90
2023-03-06T11:43:41.987Z,9.93
2023-03-06T11:46:19.696Z,9.90
2023-03-06T11:48:53.762Z,9.99
2023-03-06T11:51:27.704Z,9.84
2023-03-06T11:53:55.123Z,9.91
2023-03-06T11:56:31.895Z,9.80
2023-03-06T11:59:07.718Z,9.82
2023-03-06T12:01:46.127Z,9.68
2023-03-06T12:04:39.293Z,9.70
2023-03-06T12:07:11.392Z,9.77
2023-03-06T12:10:11.956Z,9.76
2023-03-06T12:12:47.574Z,9.80
2023-03-06T12:15:22.243Z,9.84
2023-03-06T12:17:48.559Z,9.75
2023-03-06T12:20:43.956Z,9.86
2023-03-06T12:23:16.475Z,9.88
2023-03-06T12:25:49.098Z,9.92
2023-03-06T12:28:31.083Z,9.94
2023-03-06T12:31:09.352Z,9.99
2023-03-06T12:33:49.677Z,10.00
2023-03-06T12:36:21.737Z,10.00
2023-03-06T12:39:04.873Z,9.97
2023-03-06T12:41:55.325Z,9.90
2023-03-06T12:44:42.375Z,9.87
2023-03-06T12:47:11.570Z,9.97
2023-03-06T12:49:41.699Z,10.02
2023-03-06T12:52:11.058Z,9.93
2023-03-06T12:54:40.992Z,10.07
2023-03-06T12:57:09.312Z,10.16
2023-03-06T12:59:47.073Z,10.18
2023-03-06T13:02:19.557Z,10.24
2023-03-06T13:04:48.970Z,10.35
2023-03-06T13:07:34.012Z,10.44
2023-03-06T13:10:26.488Z,10.67
2023-03-06T13:13:01.589Z,10.69
2023-03-06T13:15:42.567Z,10.61
2023-03-06T13:18:24.036Z,10.65
2023-03-06T13:20:55.459Z,10.66
2023-03-06T13:23:34.933Z,10.67
2023-03-06T13:26:08.171Z,10.70
2023-03-06T13:28:40.483Z,10.81
2023-03-06T13:31:18.216Z,10.90
2023-03-06T13:33:59.787Z,10.99
2023-03-06T13:36:37.688Z,10.94
2023-03-06T13:39:09.277Z,10.94
2023-03-06T13:41:40.925Z,10.88
2023-03-06T13:44:25.738Z,10.87
2023-03-06T13:47:06.177Z,10.85
2023-03-06T13:49:34.205Z,10.82
2023-03-06T13:52:31.751Z,10.81
2023-03-06T13:55:29.075Z,10.71
2023-03-06T13:58:14.024Z,10.75
2023-03-06T14:00:52.478Z,10.74
2023-03-06T14:03:42.344Z,10.77
2023-03-06T14:06:42.131Z,10.79
2023-03-06T14:09:22.985Z,10.94
2023-03-06T14:12:02.405Z,11.03
2023-03-06T14:14:35.029Z,11.11
2023-03-06T14:17:05.163Z,11.12
2023-03-06T14:19:37.459Z,11.17
2023-03-06T14:22:05.774Z,11.22
2023-03-06T14:24:38.033Z,11.11
2023-03-06T14:27:04.577Z,11.03
2023-03-06T14:29:33.244Z,10.93
2023-03-06T14:32:01.163Z,10.97
2023-03-06T14:34:30.944Z,11.00
2023-03-06T14:37:03.124Z,10.98
2023-03-06T14:39:44.004Z,10.88
2023-03-06T14:42:25.922Z,10.90
2023-03-06T14:45:18.693Z,10.87
2023-03-06T14:47:52.898Z,10.84
2023-03-06T14:50:28.070Z,10.82
2023-03-06T14:53:04.618Z,10.84
2023-03-06T14:55:34.878Z,10.82
2023-03-06T14:58:07.716Z,10.79
2023-03-06T15:00:39.623Z,10.79
2023-03-06T15:03:12.779Z,10.70
2023-03-06T15:05:40.464Z,10.69
2023-03-06T15:08:08.803Z,10.70
2023-03-06T15:10:36.589Z,10.59
2023-03-06T15:13:21.170Z,10.60
2023-03-06T15:16:01.130Z,10.56
2023-03-06T15:18:39.167Z,10.44
2023-03-06T15:21:08.940Z,10.40
2023-03-06T15:23:38.786Z,10.46
2023-03-06T15:26:31.201Z,10.50
2023-03-06T15:29:22.682Z,10.41
2023-03-06T15:31:49.198Z,10.27
2023-03-06T15:34:23.188Z,10.32
2023-03-06T15:36:54.192Z,10.38
2023-03-06T15:39:26.616Z,10.37
2023-03-06T15:42:02.415Z,10.32
2023-03-06T15:44:32.424Z,10.32
2023-03-06T15:47:08.533Z,10.31
2023-03-06T15:49:37.812Z,10.22
2023-03-06T15:52:07.590Z,10.28
2023-03-06T15:54:34.412Z,10.21
2023-03-06T15:57:02.956Z,10.22
2023-03-06T15:59:32.918Z,10.20
2023-03-06T16:02:11.381Z,10.25
2023-03-06T16:04:37.843Z,10.28
2023-03-06T16:07:04.215Z,10.23
2023-03-06T16:09:30.588Z,10.31
2023-03-06T16:11:57.539Z,10.31
2023-03-06T16:14:24.695Z,10.27
2023-03-06T16:16:54.335Z,10.27
2023-03-06T16:19:27.781Z,10.21
2023-03-06T16:21:56.544Z,10.22
2023-03-06T16:24:25.048Z,10.17
2023-03-06T16:26:53.687Z,10.17
2023-03-06T16:29:26.591Z,10.16
2023-03-06T16:31:55.458Z,10.09
2023-03-06T16:34:23.043Z,9.99
2023-03-06T16:36:50.215Z,10.01
2023-03-06T16:39:19.784Z,10.04
2023-03-06T16:41:50.204Z,9.83
2023-03-06T16:44:17.156Z,9.76
2023-03-06T16:46:47.399Z,9.72
2023-03-06T16:49:20.608Z,9.78
2023-03-06T16:51:48.176Z,9.75
2023-03-06T16:54:14.830Z,9.70
2023-03-06T16:56:41.572Z,9.69
2023-03-06T16:59:08.392Z,9.67
2023-03-06T17:01:35.096Z,9.65
2023-03-06T17:04:01.545Z,9.57
2023-03-06T17:06:28.490Z,9.50
2023-03-06T17:08:54.934Z,9.59
2023-03-06T17:11:21.427Z,9.53
2023-03-06T17:13:48.505Z,9.56
2023-03-06T17:16:18.064Z,9.37
2023-03-06T17:18:45.668Z,9.26
2023-03-06T17:21:15.592Z,9.20
2023-03-06T17:23:42.264Z,9.16
2023-03-06T17:26:09.947Z,9.27
2023-03-06T17:28:37.645Z,9.24
2023-03-06T17:31:18.555Z,9.27
2023-03-06T17:33:45.536Z,9.27
2023-03-06T17:36:14.296Z,9.17
2023-03-06T17:38:41.266Z,9.13
2023-03-06T17:41:09.363Z,9.12
2023-03-06T17:43:37.158Z,9.03
2023-03-06T17:46:11.421Z,9.12
2023-03-06T17:48:38.715Z,9.19
2023-03-06T17:51:06.266Z,9.14
2023-03-06T17:53:33.047Z,9.13
2023-03-06T17:55:59.533Z,9.22
2023-03-06T17:58:26.851Z,9.24
2023-03-06T18:00:53.632Z,9.26
2023-03-06T18:03:20.652Z,9.26
2023-03-06T18:05:47.185Z,9.16
2023-03-06T18:08:13.890Z,9.16
2023-03-06T18:10:41.744Z,9.24
2023-03-06T18:13:09.695Z,9.16
2023-03-06T18:15:42.157Z,9.15
2023-03-06T18:18:09.239Z,9.18
2023-03-06T18:20:41.074Z,9.11
2023-03-06T18:23:07.537Z,9.13
2023-03-06T18:25:34.070Z,9.08
2023-03-06T18:28:00.611Z,9.09
2023-03-06T18:30:27.305Z,9.02
2023-03-06T18:32:54.316Z,8.99
2023-03-06T18:35:21.565Z,8.91
2023-03-06T18:37:47.970Z,8.91
2023-03-06T18:40:14.848Z,8.93
2023-03-06T18:42:41.208Z,8.86
2023-03-06T18:45:08.162Z,8.87
2023-03-06T18:47:34.674Z,8.81
2023-03-06T18:50:02.663Z,8.77
2023-03-06T18:52:29.048Z,8.76
2023-03-06T18:54:55.493Z,8.75
2023-03-06T18:57:22.082Z,8.78
2023-03-06T18:59:48.537Z,8.84
2023-03-06T19:02:15.061Z,8.71
2023-03-06T19:04:41.466Z,8.72
2023-03-06T19:07:07.902Z,8.72
2023-03-06T19:09:34.331Z,8.71
2023-03-06T19:12:03.353Z,8.63
2023-03-06T19:14:29.832Z,8.61
2023-03-06T19:16:56.502Z,8.63
2023-03-06T19:19:26.353Z,8.62
2023-03-06T19:21:53.478Z,8.53
2023-03-06T19:24:20.100Z,8.53
2023-03-06T19:26:46.551Z,8.51
2023-03-06T19:29:13.130Z,8.54
2023-03-06T19:31:39.736Z,8.43
2023-03-06T19:34:06.265Z,8.31
2023-03-06T19:36:34.162Z,8.43
2023-03-06T19:39:06.249Z,8.45
2023-03-06T19:41:33.450Z,8.44
2023-03-06T19:44:02.316Z,8.34
2023-03-06T19:46:29.235Z,8.38
2023-03-06T19:48:58.283Z,8.33
2023-03-06T19:51:25.511Z,8.29
2023-03-06T19:53:52.388Z,8.29
2023-03-06T19:56:25.977Z,8.26
2023-03-06T19:58:52.703Z,8.15
2023-03-06T20:01:21.432Z,8.03
2023-03-06T20:03:50.407Z,8.10
2023-03-06T20:06:19.115Z,8.05
2023-03-06T20:08:47.042Z,8.03
2023-03-06T20:11:23.384Z,7.99
2023-03-06T20:13:50.272Z,7.95
2023-03-06T20:16:18.134Z,7.92
2023-03-06T20:18:45.352Z,7.91
2023-03-06T20:21:12.100Z,8.08
2023-03-06T20:23:38.568Z,7.97
2023-03-06T20:26:11.774Z,7.78
2023-03-06T20:28:39.302Z,7.59
2023-03-06T20:31:07.806Z,7.47
2023-03-06T20:33:34.271Z,7.40
2023-03-06T20:36:00.743Z,7.40
2023-03-06T20:38:27.199Z,7.40
2023-03-06T20:40:55.781Z,7.46
2023-03-06T20:43:22.167Z,7.32
2023-03-06T20:46:00.021Z,7.45
2023-03-06T20:48:26.558Z,7.35
2023-03-06T20:50:59.615Z,7.35
2023-03-06T20:53:26.275Z,7.36
2023-03-06T20:55:52.782Z,7.28
2023-03-06T20:58:19.230Z,7.21
2023-03-06T21:00:45.884Z,7.27
2023-03-06T21:03:12.276Z,7.16
2023-03-06T21:05:38.655Z,7.12
2023-03-06T21:08:05.349Z,7.19
2023-03-06T21:10:31.903Z,7.18
2023-03-06T21:12:58.458Z,7.14
2023-03-06T21:15:29.798Z,7.25
2023-03-06T21:17:56.748Z,7.21
2023-03-06T21:20:23.281Z,7.48
2023-03-06T21:22:51.537Z,7.43
2023-03-06T21:25:17.933Z,7.54
2023-03-06T21:27:44.461Z,7.43
2023-03-06T21:30:11.577Z,7.44
2023-03-06T21:32:38.009Z,7.47
2023-03-06T21:35:04.706Z,7.46
2023-03-06T21:37:31.166Z,7.50
2023-03-06T21:40:00.862Z,7.59
2023-03-06T21:42:27.259Z,7.38
2023-03-06T21:44:53.626Z,7.15
2023-03-06T21:47:20.145Z,6.93
2023-03-06T21:49:48.671Z,6.94
2023-03-06T21:52:15.085Z,6.92
2023-03-06T21:54:41.557Z,6.96
2023-03-06T21:57:07.946Z,6.82
2023-03-06T21:59:34.297Z,6.74
2023-03-06T22:02:00.669Z,6.77
2023-03-06T22:04:27.112Z,6.72
2023-03-06T22:06:53.490Z,6.68
2023-03-06T22:09:20.070Z,6.78
2023-03-06T22:11:46.482Z,6.74
2023-03-06T22:14:14.628Z,6.69
2023-03-06T22:16:41.152Z,6.57
2023-03-06T22:19:07.598Z,6.53
2023-03-06T22:21:33.989Z,6.56
2023-03-06T22:24:00.384Z,6.66
2023-03-06T22:26:29.113Z,6.76
2023-03-06T22:28:55.739Z,6.76
2023-03-06T22:31:25.069Z,6.88
2023-03-06T22:33:53.797Z,6.71
2023-03-06T22:36:21.376Z,6.76
2023-03-06T22:38:49.012Z,6.81
2023-03-06T22:41:17.862Z,6.57
2023-03-06T22:43:44.257Z,6.64
2023-03-06T22:46:13.353Z,6.68
2023-03-06T22:48:40.807Z,6.64
2023-03-06T22:51:11.717Z,6.69
2023-03-06T22:53:38.588Z,6.70
2023-03-06T22:56:07.871Z,6.74
2023-03-06T22:58:37.042Z,6.84
2023-03-06T23:01:12.688Z,6.89
2023-03-06T23:03:44.395Z,6.82
2023-03-06T23:06:23.627Z,6.76
2023-03-06T23:08:53.062Z,6.76
2023-03-06T23:11:20.894Z,6.75
2023-03-06T23:13:47.327Z,6.72
2023-03-06T23:16:14.024Z,6.81
2023-03-06T23:18:40.910Z,6.85
2023-03-06T23:21:13.146Z,6.80
2023-03-06T23:23:40.252Z,6.75
2023-03-06T23:26:08.629Z,6.79
2023-03-06T23:28:35.147Z,6.67
2023-03-06T23:31:07.254Z,6.64
2023-03-06T23:33:34.038Z,6.58
2023-03-06T23:36:05.650Z,6.71
2023-03-06T23:38:32.718Z,6.69
2023-03-06T23:41:04.183Z,6.71
2023-03-06T23:43:31.496Z,6.69
2023-03-06T23:45:58.358Z,6.72
2023-03-06T23:48:25.344Z,6.59
2023-03-06T23:50:51.702Z,6.51
2023-03-06T23:53:18.174Z,6.53
2023-03-06T23:55:46.309Z,6.74
2023-03-06T23:58:14.078Z,6.71
